createdAt,value
2019-04-01T00:00:47.797Z,24.80
2019-04-01T00:03:34.365Z,22.60
2019-04-01T00:06:17.521Z,23.80
2019-04-01T00:08:57.298Z,22.97
2019-04-01T00:11:50.748Z,23.33
2019-04-01T00:14:37.425Z,26.23
2019-04-01T00:17:24.887Z,37.00
2019-04-01T00:20:07.057Z,32.40
2019-04-01T00:22:51.834Z,26.50
2019-04-01T00:25:38.273Z,23.93
2019-04-01T00:28:25.219Z,25.37
2019-04-01T00:31:12.669Z,31.97
2019-04-01T00:33:54.259Z,37.20
2019-04-01T00:36:33.796Z,37.03
2019-04-01T00:39:14.274Z,28.77
2019-04-01T00:42:11.566Z,24.77
2019-04-01T00:44:54.510Z,24.47
2019-04-01T00:47:39.995Z,24.43
2019-04-01T00:50:31.129Z,21.93
2019-04-01T00:53:13.361Z,24.37
2019-04-01T00:55:55.446Z,31.33
2019-04-01T00:58:37.941Z,30.47
2019-04-01T01:01:20.610Z,26.10
2019-04-01T01:04:09.036Z,21.73
2019-04-01T01:06:49.629Z,23.83
2019-04-01T01:09:32.156Z,25.73
2019-04-01T01:12:21.642Z,21.10
2019-04-01T01:15:08.679Z,19.53
2019-04-01T01:17:59.609Z,20.60
2019-04-01T01:20:52.954Z,18.57
2019-04-01T01:23:38.875Z,26.97
2019-04-01T01:26:23.572Z,25.07
2019-04-01T01:29:12.082Z,30.77
2019-04-01T01:31:56.355Z,23.93
2019-04-01T01:34:43.953Z,20.03
2019-04-01T01:37:29.352Z,17.67
2019-04-01T01:40:13.849Z,17.70
2019-04-01T01:43:03.238Z,19.63
2019-04-01T01:45:43.535Z,20.30
2019-04-01T01:48:29.045Z,18.60
2019-04-01T01:51:15.063Z,16.47
2019-04-01T01:53:58.391Z,19.47
2019-04-01T01:56:46.977Z,17.83
2019-04-01T01:59:29.370Z,18.63
2019-04-01T02:02:15.940Z,15.37
2019-04-01T02:05:00.531Z,16.57
2019-04-01T02:07:43.857Z,15.53
2019-04-01T02:10:24.390Z,15.60
2019-04-01T02:13:11.178Z,18.10
2019-04-01T02:16:00.403Z,16.97
2019-04-01T02:18:47.929Z,17.73
2019-04-01T02:21:34.530Z,16.63
2019-04-01T02:24:17.860Z,15.63
2019-04-01T02:27:06.600Z,14.73
2019-04-01T02:29:56.546Z,15.43
2019-04-01T02:32:36.904Z,19.00
2019-04-01T02:35:17.450Z,18.53
2019-04-01T02:38:02.772Z,20.37
2019-04-01T02:40:42.238Z,22.87
2019-04-01T02:44:17.512Z,40.17
2019-04-01T02:46:18.903Z,33.47
2019-04-01T02:49:11.781Z,33.97
2019-04-01T02:52:17.920Z,25.97
2019-04-01T02:55:06.889Z,24.60
2019-04-01T02:57:54.587Z,34.83
2019-04-01T03:00:34.374Z,27.30
2019-04-01T03:03:15.614Z,26.83
2019-04-01T03:06:02.109Z,26.40
2019-04-01T03:08:49.018Z,24.70
2019-04-01T03:11:29.521Z,25.30
2019-04-01T03:14:10.461Z,24.37
2019-04-01T03:17:09.924Z,23.90
2019-04-01T03:19:45.481Z,27.00
2019-04-01T03:22:28.728Z,26.27
2019-04-01T03:25:11.476Z,25.03
2019-04-01T03:27:53.545Z,25.70
2019-04-01T03:30:46.289Z,26.50
2019-04-01T03:33:33.439Z,26.23
2019-04-01T03:36:27.103Z,22.87
2019-04-01T03:39:15.668Z,34.67
2019-04-01T03:43:06.752Z,27.83
2019-04-01T03:44:55.053Z,24.27
2019-04-01T03:47:56.406Z,25.73
2019-04-01T03:50:41.163Z,24.67
2019-04-01T03:53:26.762Z,24.83
2019-04-01T03:56:14.513Z,24.40
2019-04-01T03:59:14.087Z,25.77
2019-04-01T04:02:00.910Z,27.73
2019-04-01T04:04:51.654Z,34.97
2019-04-01T04:07:49.271Z,33.47
2019-04-01T04:10:40.067Z,27.73
2019-04-01T04:13:34.398Z,31.48
2019-04-01T04:16:17.093Z,28.70
2019-04-01T04:19:02.972Z,46.05
2019-04-01T04:21:51.212Z,41.40
2019-04-01T04:24:48.807Z,43.57
2019-04-01T04:27:42.380Z,128.93
2019-04-01T04:30:28.892Z,74.20
2019-04-01T04:36:59.488Z,47.77
2019-04-01T04:39:45.891Z,32.47
2019-04-01T04:42:54.348Z,42.67
2019-04-01T04:45:56.546Z,53.20
2019-04-01T04:49:00.190Z,40.87
2019-04-01T04:52:04.642Z,23.40
2019-04-01T04:55:04.327Z,23.33
2019-04-01T04:58:14.257Z,20.40
2019-04-01T05:00:58.529Z,28.03
2019-04-01T05:04:03.839Z,24.90
2019-04-01T05:06:52.734Z,27.17
2019-04-01T05:09:47.247Z,23.60
2019-04-01T05:12:38.092Z,23.37
2019-04-01T05:15:24.452Z,25.83
2019-04-01T05:18:08.067Z,73.13
2019-04-01T05:21:04.886Z,37.67
2019-04-01T05:23:51.894Z,27.87
2019-04-01T05:26:35.265Z,24.97
2019-04-01T05:29:25.930Z,25.83
2019-04-01T05:32:41.119Z,26.00
2019-04-01T05:35:37.284Z,27.63
2019-04-01T05:38:23.275Z,34.15
2019-04-01T05:41:21.264Z,28.67
2019-04-01T05:44:10.377Z,24.27
2019-04-01T05:46:55.654Z,24.57
2019-04-01T05:49:52.026Z,25.63
2019-04-01T05:52:42.639Z,28.23
2019-04-01T05:55:36.052Z,31.20
2019-04-01T05:58:17.722Z,33.00
2019-04-01T06:01:13.461Z,27.70
2019-04-01T06:03:59.401Z,25.70
2019-04-01T06:06:48.797Z,24.80
2019-04-01T06:09:35.734Z,29.17
2019-04-01T06:12:24.233Z,30.23
2019-04-01T06:15:09.379Z,34.60
2019-04-01T06:17:51.425Z,37.78
2019-04-01T06:20:36.827Z,31.93
2019-04-01T06:23:36.651Z,28.10
2019-04-01T06:29:47.075Z,30.47
2019-04-01T06:32:28.024Z,30.87
2019-04-01T06:38:08.548Z,29.50
2019-04-01T06:44:20.474Z,27.70
2019-04-01T06:56:49.057Z,35.20
2019-04-01T07:06:34.710Z,30.27
2019-04-01T07:09:15.837Z,31.00
2019-04-01T07:16:15.641Z,30.77
2019-04-01T07:25:20.994Z,27.27
2019-04-01T07:31:34.802Z,29.10
2019-04-01T07:37:45.485Z,32.60
2019-04-01T07:40:45.451Z,28.00
2019-04-01T07:43:57.135Z,36.30
2019-04-01T07:46:38.873Z,29.73
2019-04-01T07:55:56.780Z,29.57
2019-04-01T08:02:09.905Z,28.67
2019-04-01T08:08:04.875Z,29.33
2019-04-01T08:14:11.851Z,46.35
2019-04-01T08:16:50.528Z,32.60
2019-04-01T08:19:33.054Z,33.33
2019-04-01T08:22:18.103Z,30.40
2019-04-01T08:25:04.439Z,29.43
2019-04-01T08:40:52.173Z,27.40
2019-04-01T08:47:25.947Z,31.80
2019-04-01T08:50:36.138Z,33.75
2019-04-01T08:53:49.651Z,28.93
2019-04-01T08:59:56.698Z,24.73
2019-04-01T09:12:29.185Z,27.80
2019-04-01T09:15:15.542Z,26.70
2019-04-01T09:17:56.326Z,26.50
2019-04-01T09:20:51.739Z,29.17
2019-04-01T09:26:49.093Z,28.80
2019-04-01T09:32:45.553Z,32.73
2019-04-01T09:39:11.049Z,32.90
2019-04-01T09:41:54.025Z,34.03
2019-04-01T09:44:59.079Z,34.17
2019-04-01T09:51:15.784Z,32.43
2019-04-01T09:57:46.092Z,50.57
2019-04-01T10:00:31.415Z,50.70
2019-04-01T10:03:25.225Z,45.70
2019-04-01T10:06:10.548Z,42.50
2019-04-01T10:08:49.120Z,67.15
2019-04-01T10:15:01.459Z,42.70
2019-04-01T10:18:00.881Z,43.73
2019-04-01T10:20:57.164Z,42.30
2019-04-01T10:27:10.292Z,40.23
2019-04-01T10:36:20.643Z,35.97
2019-04-01T10:39:32.814Z,37.30
2019-04-01T10:45:54.354Z,46.53
2019-04-01T10:55:06.935Z,46.33
2019-04-01T10:58:09.666Z,50.03
2019-04-01T11:01:10.445Z,46.13
2019-04-01T11:11:10.947Z,63.67
2019-04-01T11:14:02.947Z,57.37
2019-04-01T11:23:26.931Z,51.35
2019-04-01T11:32:57.171Z,54.40
2019-04-01T11:39:47.722Z,62.47
2019-04-01T11:42:22.966Z,59.10
2019-04-01T11:45:10.610Z,58.57
2019-04-01T11:48:06.089Z,56.30
2019-04-01T11:50:49.209Z,56.17
2019-04-01T11:53:39.262Z,46.67
2019-04-01T11:56:37.952Z,50.70
2019-04-01T11:59:29.293Z,50.27
2019-04-01T12:05:12.650Z,53.53
2019-04-01T12:08:25.236Z,54.50
2019-04-01T12:11:12.683Z,54.10
2019-04-01T12:14:05.300Z,46.87
2019-04-01T12:20:04.461Z,53.03
2019-04-01T12:26:15.305Z,55.23
2019-04-01T12:29:07.616Z,52.40
2019-04-01T12:32:02.678Z,48.70
2019-04-01T12:34:55.654Z,49.60
2019-04-01T12:41:14.678Z,48.83
2019-04-01T12:44:21.207Z,53.50
2019-04-01T12:47:09.422Z,48.17
2019-04-01T12:50:20.285Z,46.10
2019-04-01T12:56:47.301Z,53.87
2019-04-01T12:59:35.518Z,51.73
2019-04-01T13:02:51.177Z,41.37
2019-04-01T13:05:54.323Z,41.07
2019-04-01T13:08:54.129Z,37.03
2019-04-01T13:11:42.832Z,41.70
2019-04-01T13:14:45.544Z,42.87
2019-04-01T13:20:51.392Z,36.67
2019-04-01T13:24:05.087Z,34.83
2019-04-01T13:30:03.543Z,40.60
2019-04-01T13:33:02.316Z,32.10
2019-04-01T13:36:16.620Z,29.60
2019-04-01T13:39:23.251Z,34.77
2019-04-01T14:00:27.029Z,30.70
2019-04-01T14:07:07.703Z,23.63
2019-04-01T14:14:07.315Z,26.87
2019-04-01T14:24:13.311Z,32.87
2019-04-01T14:34:13.134Z,28.97
2019-04-01T14:37:12.363Z,26.13
2019-04-01T14:40:38.533Z,29.73
2019-04-01T15:05:11.415Z,31.57
2019-04-01T15:16:29.306Z,37.63
2019-04-01T15:19:41.330Z,38.70
2019-04-01T15:27:10.170Z,45.00
2019-04-01T15:33:37.081Z,39.43
2019-04-01T15:40:37.096Z,42.83
2019-04-01T15:50:00.416Z,45.77
2019-04-01T15:56:19.347Z,43.67
2019-04-01T16:06:15.935Z,49.27
2019-04-01T16:12:20.425Z,51.60
2019-04-01T16:22:09.303Z,48.10
2019-04-01T16:28:30.057Z,56.67
2019-04-01T16:31:57.734Z,51.90
2019-04-01T16:41:49.935Z,52.77
2019-04-01T16:44:30.081Z,53.73
2019-04-01T16:54:08.372Z,48.73
2019-04-01T17:07:04.069Z,51.07
2019-04-01T17:13:20.030Z,58.03
2019-04-01T17:16:05.431Z,57.60
2019-04-01T17:18:49.768Z,53.70
2019-04-01T17:21:34.339Z,57.47
2019-04-01T17:24:28.057Z,55.63
2019-04-01T17:27:31.027Z,53.77
2019-04-01T17:30:12.686Z,50.60
2019-04-01T17:32:59.688Z,52.87
2019-04-01T17:36:00.295Z,49.47
2019-04-01T17:41:46.347Z,52.10
2019-04-01T17:44:42.234Z,48.73
2019-04-01T17:47:31.909Z,53.85
2019-04-01T17:50:11.325Z,51.17
2019-04-01T17:53:11.288Z,48.80
2019-04-01T17:55:58.007Z,47.90
2019-04-01T17:58:53.205Z,49.83
2019-04-01T18:01:46.171Z,46.97
2019-04-01T18:04:42.247Z,50.50
2019-04-01T18:07:36.912Z,47.83
2019-04-01T18:10:19.976Z,47.27
2019-04-01T18:13:00.468Z,49.50
2019-04-01T18:15:42.909Z,49.07
2019-04-01T18:18:27.180Z,47.30
2019-04-01T18:21:07.836Z,48.63
2019-04-01T18:23:54.112Z,45.63
2019-04-01T18:26:38.308Z,50.00
2019-04-01T18:29:19.596Z,47.73
2019-04-01T18:32:03.745Z,47.00
2019-04-01T18:34:47.613Z,49.80
2019-04-01T18:37:41.081Z,49.80
2019-04-01T18:40:32.764Z,53.47
2019-04-01T18:43:07.720Z,52.47
2019-04-01T18:45:51.265Z,48.83
2019-04-01T18:48:32.683Z,48.33
2019-04-01T18:51:13.118Z,49.00
2019-04-01T18:53:54.565Z,52.03
2019-04-01T18:56:34.949Z,49.43
2019-04-01T18:59:13.162Z,53.68
2019-04-01T19:01:59.383Z,47.10
2019-04-01T19:04:43.779Z,50.63
2019-04-01T19:07:47.231Z,51.33
2019-04-01T19:10:32.469Z,46.90
2019-04-01T19:13:20.233Z,46.23
2019-04-01T19:16:03.665Z,51.23
2019-04-01T19:18:56.391Z,47.53
2019-04-01T19:21:38.722Z,48.47
2019-04-01T19:24:19.244Z,46.97
2019-04-01T19:27:05.842Z,43.63
2019-04-01T19:29:46.226Z,50.97
2019-04-01T19:32:28.985Z,47.63
2019-04-01T19:35:09.456Z,48.70
2019-04-01T19:37:51.742Z,55.63
2019-04-01T19:40:35.664Z,48.53
2019-04-01T19:43:19.090Z,47.87
2019-04-01T19:46:02.288Z,48.03
2019-04-01T19:48:41.062Z,46.63
2019-04-01T19:51:25.322Z,50.63
2019-04-01T19:54:06.789Z,43.60
2019-04-01T19:56:48.622Z,45.97
2019-04-01T19:59:36.076Z,44.67
2019-04-01T20:02:20.182Z,45.57
2019-04-01T20:05:04.778Z,45.80
2019-04-01T20:07:48.691Z,46.13
2019-04-01T20:10:30.727Z,44.83
2019-04-01T20:13:15.119Z,44.27
2019-04-01T20:15:57.658Z,51.75
2019-04-01T20:18:38.486Z,45.47
2019-04-01T20:21:21.440Z,45.17
2019-04-01T20:23:59.160Z,42.63
2019-04-01T20:26:40.282Z,45.90
2019-04-01T20:29:18.758Z,45.47
2019-04-01T20:31:57.968Z,43.03
2019-04-01T20:34:40.971Z,44.67
2019-04-01T20:37:21.491Z,41.30
2019-04-01T20:40:03.054Z,45.80
2019-04-01T20:42:43.069Z,45.40
2019-04-01T20:45:23.324Z,42.07
2019-04-01T20:48:05.970Z,45.33
2019-04-01T20:50:50.273Z,42.30
2019-04-01T20:53:28.707Z,49.15
2019-04-01T20:56:08.648Z,45.57
2019-04-01T20:58:57.373Z,41.10
2019-04-01T21:01:40.277Z,40.13
2019-04-01T21:04:24.383Z,45.13
2019-04-01T21:07:04.299Z,41.03
2019-04-01T21:09:51.870Z,41.17
2019-04-01T21:12:37.218Z,43.07
2019-04-01T21:15:16.301Z,45.77
2019-04-01T21:17:54.397Z,40.50
2019-04-01T21:20:36.067Z,41.23
2019-04-01T21:23:17.597Z,40.93
2019-04-01T21:25:58.997Z,41.10
2019-04-01T21:28:43.323Z,38.90
2019-04-01T21:31:25.102Z,41.53
2019-04-01T21:34:07.795Z,38.17
2019-04-01T21:36:48.322Z,41.87
2019-04-01T21:39:29.974Z,40.00
2019-04-01T21:42:10.162Z,39.73
2019-04-01T21:44:53.098Z,40.73
2019-04-01T21:47:34.727Z,38.00
2019-04-01T21:50:13.586Z,36.57
2019-04-01T21:52:53.476Z,38.07
2019-04-01T21:55:37.476Z,35.60
2019-04-01T21:58:18.085Z,39.70
2019-04-01T22:01:03.515Z,38.57
2019-04-01T22:03:45.700Z,36.67
2019-04-01T22:06:25.077Z,35.03
2019-04-01T22:09:11.555Z,34.20
2019-04-01T22:11:52.297Z,38.53
2019-04-01T22:14:37.218Z,35.67
2019-04-01T22:17:20.739Z,36.47
2019-04-01T22:20:02.022Z,33.40
2019-04-01T22:22:41.809Z,36.97
2019-04-01T22:25:21.728Z,32.80
2019-04-01T22:28:05.238Z,34.20
2019-04-01T22:30:49.057Z,33.77
2019-04-01T22:33:31.104Z,34.17
2019-04-01T22:36:11.338Z,33.77
2019-04-01T22:38:53.052Z,35.80
2019-04-01T22:41:34.912Z,34.80
2019-04-01T22:44:18.702Z,35.67
2019-04-01T22:47:00.790Z,38.30
2019-04-01T22:49:48.142Z,33.70
2019-04-01T22:52:46.318Z,38.92
2019-04-01T22:55:32.467Z,34.83
2019-04-01T22:58:16.165Z,33.13
2019-04-01T23:00:57.986Z,34.23
2019-04-01T23:03:42.093Z,37.10
2019-04-01T23:06:26.586Z,87.53
2019-04-01T23:09:08.975Z,49.83
2019-04-01T23:11:53.334Z,40.03
2019-04-01T23:14:48.940Z,37.50
2019-04-01T23:17:30.557Z,37.17
2019-04-01T23:20:42.643Z,36.03
2019-04-01T23:23:17.562Z,35.03
2019-04-01T23:26:02.197Z,39.20
2019-04-01T23:28:44.849Z,36.90
2019-04-01T23:31:32.501Z,36.53
2019-04-01T23:34:17.028Z,34.17
2019-04-01T23:37:06.359Z,34.93
2019-04-01T23:39:49.704Z,36.13
2019-04-01T23:42:30.438Z,32.20
2019-04-01T23:45:17.753Z,36.57
2019-04-01T23:47:58.765Z,35.30
2019-04-01T23:50:39.616Z,32.23
2019-04-01T23:53:24.585Z,33.33
2019-04-01T23:56:04.559Z,37.83
2019-04-01T23:58:51.190Z,35.80
